Guernsey Island, United Kingdom
Current Conditions -  °F | °C
As of 5:20 PM on Thursday 29 Jan 2015 (Local Time) from EGJB Reporting Station
Rain Showers Rain Showers  
Wind Chill:   Ceiling: 1900
Heat Index:   Visibility: 6mi
Dew Point:   Wind: 28mph
Humidity: 81%   Direction: 300°WNW
Pressure: 29.03"   Gusts: 41mph
Location:  49.43°N, 2.6°W
Report Text: EGJB 291620Z 30024G36KT 9999 VCSH FEW010 FEW015CB BKN019 06/03 Q0983
Loading
Personal Weather Stations






























Interactive Weather Map New forecast layout! Learn more

10-Day Weather Forecast

Advertisements
Track Severe Weather on mobile